Terminal Aerodrome Forecast
Issued by NWS

Home | Current Version | Previous Version | Text Only | Print | Product List | Glossary On
Versions: 1 2 3 4 5 6 7 8 9 10 11 12 13 14 15 16 17 18 19 20 21 22
000
FTUS41 KRLX 301700
TAFCKB
TAF
KCKB 301740Z 3018/0118 26005KT P6SM SCT008
     FM010000 00000KT P6SM VCSH SCT050 BKN250
     FM010400 00000KT P6SM BKN250=

USA.gov is the U.S. government's official web portal to all federal, state and local government web resources and services.